EGGW

London Luton Airport

London, United Kingdom
METAR EGGW 161750Z AUTO 26008KT 9999 FEW009 04/04 Q1001
Observed Flight Rules
Jan-16 @ 17:50 UTC (36 minutes ago) Visual Flight Rules
Wind Visibility Clouds
260° at 8 knots 10,000+ meters
  • Few at 900' AGL
Temperatures Readings
Current 4°C / 39°F
Dewpoint 4°C / 39°F
Humidity 100%
Altimeter 29.56" Hg
Pressure 1000.92 hPa
Elevation 160
METAR EGGW 161750Z AUTO 26008KT 9999 FEW009 04/04 Q1001
Observed Flight Rules
Jan-16 @ 17:50 UTC
(36 minutes ago)
VFR
Wind Visibility
260° at 8 knots 10,000+ meters
Clouds
  • Few at 900' AGL
Temperature Dewpoint
4°C / 39°F 4°C / 39°F
Humidity Altimeter Pressure
100% 29.56" Hg 1000.92 hPa